LiveATC.Net - Listen to live air traffic control over the Internet! Contact LiveATC.net for advertising information


ICAO: LECO  IATA: LCG   Airport: La Coruna General Airport
City: La Coruna
Country: Spain   Continent: Europe
LECO METAR Weather: LECO 231530Z 32006KT 270V010 9999 FEW022 25/18 Q1014 NOSIG
LECO Flight Activity (FlightAware)
LECO Tower
Feed Status: DOWN
Last heard on: 2013-09-05 18:18:04 (320 days 21 hours 44 minutes ago)
LECO Tower Audio Archives
FacilityFrequency
La Coruna Tower118.300


NOTICE

Unauthorized use prohibited. See LiveATC.net Terms of Service


Find LiveATC Audio Streams


Airport/ARTCC Code

Frequency
(e.g., 124.400, 128.75)
Site-wide search

Browse LiveATC Feeds
LiveATC Coverage Map
Top 50 LiveATC Feeds
Bad Weather Areas

LiveATC FAQ
Offer a LiveATC Feed
Contact LiveATC.net
Press Inquiries

LiveATC on iPhone
LiveATC on Android

LiveATC Mobile
(Mobile browser)

ATC Audio Archives
Interesting Recordings

LiveATC Forums


Home Page
About LiveATC.net
Make a Donation
LiveATC Bookstore

Terms of Use
Privacy Policy

ATC/Radar Sites
U.S. ARTCC Freqs
Canadian Air Freqs

AIRMETs/SIGMETs

FAA Airport Status
Nat'l Airspace Status
Arrival Demand Charts


Server Software By:
Icecast.org
Liquidsoap

Please make a donation to help us keep growing!